Time;durP1;ratioP1;P1;durP2;ratioP2;P2;SDS_P1;SDS_P2;PMS_P1;PMS_P2;Temp;Humidity;BMP_temperature;BMP_pressure;BME280_temperature;BME280_humidity;BME280_pressure;Samples;Min_cycle;Max_cycle;Signal;HPM_P1;HPM_P2
2023/01/24 00:00:56;;;;;;;19.20;13.00;;;;;;;1.60;100.00;151778.00;4990941;28;20485;-76
2023/01/24 00:03:23;;;;;;;18.23;11.90;;;;;;;1.59;100.00;151775.47;4988465;28;20461;-76
2023/01/24 00:05:50;;;;;;;18.20;12.07;;;;;;;1.57;100.00;151771.59;4985520;28;20458;-76
2023/01/24 00:08:19;;;;;;;21.20;13.80;;;;;;;1.58;100.00;151772.88;4997673;28;20806;-76
2023/01/24 00:10:47;;;;;;;18.23;12.37;;;;;;;1.55;100.00;151766.47;4990334;28;20526;-76
2023/01/24 00:13:15;;;;;;;19.07;13.77;;;;;;;1.57;100.00;151770.28;4991845;28;20466;-77
2023/01/24 00:15:42;;;;;;;16.30;11.27;;;;;;;1.51;100.00;151754.91;4993645;28;20462;-76
2023/01/24 00:18:09;;;;;;;17.00;12.47;;;;;;;1.53;100.00;151760.03;4990476;28;21241;-77
2023/01/24 00:20:35;;;;;;;16.63;10.27;;;;;;;1.54;100.00;151762.56;4988178;28;20439;-76
2023/01/24 00:23:02;;;;;;;18.47;12.73;;;;;;;1.48;100.00;151748.50;4988315;28;20542;-76
2023/01/24 00:25:29;;;;;;;19.13;12.20;;;;;;;1.49;100.00;151749.72;4988199;28;20483;-76
2023/01/24 00:27:57;;;;;;;18.30;11.50;;;;;;;1.47;100.00;151745.91;4979538;28;20577;-77
2023/01/24 00:30:24;;;;;;;15.53;10.90;;;;;;;1.58;100.00;151774.19;4990160;28;20570;-77
2023/01/24 00:32:51;;;;;;;15.47;11.60;;;;;;;1.54;100.00;151763.88;4989173;28;20458;-76
2023/01/24 00:35:17;;;;;;;19.17;12.07;;;;;;;1.49;100.00;151749.72;4978081;28;20451;-76
2023/01/24 00:37:44;;;;;;;16.73;11.50;;;;;;;1.54;100.00;151762.56;4984352;28;20458;-76
2023/01/24 00:40:11;;;;;;;19.23;12.10;;;;;;;1.54;100.00;151763.88;4988995;28;20542;-76
2023/01/24 00:42:38;;;;;;;18.83;12.90;;;;;;;1.50;100.00;151752.31;4990034;28;20500;-76
2023/01/24 00:45:08;;;;;;;17.17;12.73;;;;;;;1.50;100.00;151752.31;4990156;28;20490;-76
2023/01/24 00:47:34;;;;;;;16.90;11.67;;;;;;;1.51;100.00;151754.91;4989463;28;20447;-76
2023/01/24 00:50:01;;;;;;;17.50;11.20;;;;;;;1.50;100.00;151753.63;4999588;28;20482;-76
2023/01/24 00:52:28;;;;;;;14.33;11.43;;;;;;;1.50;100.00;151753.63;4985392;28;20549;-76
2023/01/24 00:54:54;;;;;;;17.17;11.50;;;;;;;1.47;100.00;151744.59;4973009;28;20857;-76
2023/01/24 00:57:24;;;;;;;15.07;10.87;;;;;;;1.47;100.00;151744.59;4980349;28;21046;-76
2023/01/24 00:59:50;;;;;;;17.00;11.47;;;;;;;1.50;100.00;151752.31;4989342;28;20455;-76
2023/01/24 01:02:18;;;;;;;15.97;12.00;;;;;;;1.51;100.00;151754.91;4995690;28;20462;-76
2023/01/24 01:04:45;;;;;;;17.30;11.23;;;;;;;1.48;100.00;151747.19;4986468;28;20546;-76
2023/01/24 01:07:12;;;;;;;16.80;10.27;;;;;;;1.45;100.00;151740.78;4989829;28;20458;-76
2023/01/24 01:09:39;;;;;;;15.83;9.93;;;;;;;1.54;100.00;151762.56;4988913;28;20479;-76
2023/01/24 01:12:06;;;;;;;16.33;11.87;;;;;;;1.47;100.00;151744.59;4978031;28;20516;-76
2023/01/24 01:14:32;;;;;;;15.53;11.70;;;;;;;1.50;100.00;151752.31;4990695;28;20565;-76
2023/01/24 01:16:59;;;;;;;15.40;10.80;;;;;;;1.51;100.00;151754.91;4989860;28;20512;-76
2023/01/24 01:19:27;;;;;;;20.40;11.50;;;;;;;1.51;100.00;151756.16;4982289;28;20541;-76
2023/01/24 01:21:54;;;;;;;15.03;11.20;;;;;;;1.50;100.00;151752.31;4970550;28;20458;-76
2023/01/24 01:24:21;;;;;;;15.80;11.13;;;;;;;1.49;100.00;151751.03;4989922;28;20863;-76
2023/01/24 01:26:47;;;;;;;14.73;10.37;;;;;;;1.49;100.00;151751.03;4987095;28;20455;-76
2023/01/24 01:29:14;;;;;;;16.50;12.10;;;;;;;1.47;100.00;151744.59;4987842;28;20460;-76
2023/01/24 01:31:41;;;;;;;17.80;10.27;;;;;;;1.48;100.00;151747.19;4971286;28;20447;-76
2023/01/24 01:34:08;;;;;;;15.23;11.20;;;;;;;1.50;100.00;151752.31;4988583;28;20986;-76
2023/01/24 01:36:36;;;;;;;16.97;11.30;;;;;;;1.48;100.00;151747.19;4972234;28;20508;-76
2023/01/24 01:39:03;;;;;;;18.27;12.20;;;;;;;1.46;100.00;151742.00;4989587;28;20868;-76
2023/01/24 01:41:30;;;;;;;15.93;11.10;;;;;;;1.44;100.00;151736.88;4972780;28;20459;-76
2023/01/24 01:46:43;;;;;;;15.70;11.50;;;;;;;1.39;100.00;151725.34;5005818;28;20448;-76
2023/01/24 01:49:16;;;;;;;17.70;13.00;;;;;;;1.45;100.00;151739.47;4991884;28;20559;-76
2023/01/24 01:51:46;;;;;;;17.57;11.90;;;;;;;1.45;100.00;151739.47;4992626;28;20474;-76
2023/01/24 01:54:16;;;;;;;17.57;11.77;;;;;;;1.46;100.00;151742.00;4995148;28;20447;-76
2023/01/24 01:56:45;;;;;;;17.70;12.20;;;;;;;1.52;100.00;151757.44;4989077;28;20456;-76
2023/01/24 01:59:15;;;;;;;18.30;11.70;;;;;;;1.51;100.00;151756.16;4989527;28;20835;-76
2023/01/24 02:01:43;;;;;;;20.43;12.33;;;;;;;1.51;100.00;151754.91;4987130;28;21059;-76
2023/01/24 02:04:14;;;;;;;18.60;12.33;;;;;;;1.61;100.00;151780.59;4988035;28;20481;-76
2023/01/24 02:06:50;;;;;;;14.57;10.20;;;;;;;1.47;100.00;151744.59;4981701;28;20455;-76
2023/01/24 02:09:20;;;;;;;18.50;11.23;;;;;;;1.45;100.00;151739.47;4992574;28;20472;-76
2023/01/24 02:11:47;;;;;;;17.27;11.40;;;;;;;1.45;100.00;151739.47;4964471;28;20478;-76
2023/01/24 02:17:00;;;;;;;19.43;13.20;;;;;;;1.50;100.00;151752.31;4972819;28;20446;-76
2023/01/24 02:19:39;;;;;;;17.23;13.10;;;;;;;1.51;100.00;151754.91;4970697;28;20477;-76
2023/01/24 02:22:15;;;;;;;17.60;12.10;;;;;;;1.54;100.00;151762.56;4999332;28;20548;-76
2023/01/24 02:24:46;;;;;;;20.07;12.37;;;;;;;1.48;100.00;151747.19;4984035;28;20452;-76
2023/01/24 02:27:14;;;;;;;19.10;11.80;;;;;;;1.41;100.00;151729.16;4980311;28;20450;-76
2023/01/24 02:29:41;;;;;;;18.73;12.00;;;;;;;1.41;100.00;151729.16;4991076;28;20459;-76
2023/01/24 02:32:08;;;;;;;17.63;12.03;;;;;;;1.52;100.00;151757.44;4972742;28;20459;-76
2023/01/24 02:34:35;;;;;;;17.07;13.17;;;;;;;1.45;100.00;151740.78;4991882;28;20481;-76
2023/01/24 02:37:05;;;;;;;20.60;13.90;;;;;;;1.42;100.00;151731.75;4975757;28;20465;-76
2023/01/24 02:39:33;;;;;;;19.23;12.60;;;;;;;1.49;100.00;151749.72;4973158;28;20482;-76
2023/01/24 02:42:03;;;;;;;16.67;11.93;;;;;;;1.47;100.00;151744.59;4991628;28;20464;-76
2023/01/24 02:44:36;;;;;;;19.90;13.70;;;;;;;1.48;100.00;151748.50;4976055;28;20934;-76
2023/01/24 02:47:03;;;;;;;16.43;12.00;;;;;;;1.49;100.00;151749.72;4977949;28;20465;-76
2023/01/24 02:49:30;;;;;;;17.57;12.97;;;;;;;1.54;100.00;151762.56;4985389;28;20449;-76
2023/01/24 02:54:41;;;;;;;16.23;11.07;;;;;;;1.47;100.00;151744.59;4974291;28;20935;-76
2023/01/24 02:59:53;;;;;;;18.07;11.50;;;;;;;1.46;100.00;151743.31;4996025;28;20446;-76
2023/01/24 03:02:21;;;;;;;19.23;13.10;;;;;;;1.45;100.00;151739.47;4993993;28;20450;-76
2023/01/24 03:04:47;;;;;;;17.93;11.97;;;;;;;1.40;100.00;151726.63;4975754;28;20455;-75
2023/01/24 03:07:14;;;;;;;18.67;13.10;;;;;;;1.48;100.00;151747.19;4984520;28;20469;-76
2023/01/24 03:09:47;;;;;;;17.10;12.50;;;;;;;1.44;100.00;151736.88;4971440;28;20486;-75
2023/01/24 03:34:31;;;;;;;17.07;10.83;;;;;;;1.40;100.00;151726.63;4979347;28;20447;-76
2023/01/24 03:36:58;;;;;;;15.67;11.20;;;;;;;1.41;100.00;151729.16;4969720;28;20529;-76
2023/01/24 03:42:10;;;;;;;17.00;11.27;;;;;;;1.40;100.00;151727.94;4974550;28;20594;-76
2023/01/24 03:44:36;;;;;;;18.23;13.00;;;;;;;1.42;100.00;151731.75;4968424;28;20528;-75
2023/01/24 03:47:04;;;;;;;17.43;11.93;;;;;;;1.37;100.00;151718.91;4981387;28;20456;-76
2023/01/24 03:52:28;;;;;;;15.40;11.27;;;;;;;1.43;100.00;151734.34;4972946;28;20838;-76
2023/01/24 03:54:57;;;;;;;17.33;11.20;;;;;;;1.41;100.00;151729.16;4988454;28;20438;-76
2023/01/24 03:57:24;;;;;;;15.63;11.23;;;;;;;1.41;100.00;151730.47;4990587;28;20485;-76
2023/01/24 03:59:52;;;;;;;17.43;12.20;;;;;;;1.44;100.00;151736.88;4976201;28;20538;-76
2023/01/24 04:02:21;;;;;;;17.10;11.40;;;;;;;1.46;100.00;151743.31;4991661;28;20490;-76
2023/01/24 04:07:32;;;;;;;17.07;11.07;;;;;;;1.41;100.00;151730.47;4996738;28;20919;-76
2023/01/24 04:10:03;;;;;;;16.40;11.27;;;;;;;1.46;100.00;151742.00;4990628;28;20811;-76
2023/01/24 04:12:36;;;;;;;18.47;11.53;;;;;;;1.42;100.00;151733.06;4986349;28;20851;-76
2023/01/24 04:15:05;;;;;;;19.60;12.77;;;;;;;1.41;100.00;151729.16;4969786;28;20455;-76
2023/01/24 04:17:34;;;;;;;17.27;11.80;;;;;;;1.48;100.00;151747.19;4977275;28;20458;-76
2023/01/24 04:20:01;;;;;;;15.17;11.50;;;;;;;1.50;100.00;151752.31;4986387;28;20460;-76
2023/01/24 04:22:28;;;;;;;17.43;12.07;;;;;;;1.44;100.00;151736.88;4969274;28;20473;-76
2023/01/24 04:24:57;;;;;;;17.83;12.60;;;;;;;1.49;100.00;151751.03;4986367;28;20448;-76
2023/01/24 04:27:28;;;;;;;17.73;12.60;;;;;;;1.45;100.00;151739.47;4991941;28;20450;-76
2023/01/24 04:30:06;;;;;;;20.73;12.13;;;;;;;1.44;100.00;151738.19;4968287;28;20461;-76
2023/01/24 04:32:36;;;;;;;18.97;12.80;;;;;;;1.43;100.00;151735.59;4980094;28;20879;-76
2023/01/24 04:35:10;;;;;;;15.50;12.43;;;;;;;1.46;100.00;151743.31;4990659;28;20443;-76
2023/01/24 04:37:58;;;;;;;18.37;12.13;;;;;;;1.52;100.00;151757.44;4980882;28;20455;-76
2023/01/24 04:40:42;;;;;;;18.23;12.30;;;;;;;1.41;100.00;151729.16;4972881;28;21100;-76
2023/01/24 04:43:08;;;;;;;18.40;12.50;;;;;;;1.41;100.00;151729.16;4973918;28;20870;-76
2023/01/24 04:45:36;;;;;;;18.50;11.83;;;;;;;1.46;100.00;151742.00;4987902;28;20452;-75
2023/01/24 04:48:06;;;;;;;15.33;11.47;;;;;;;1.41;100.00;151730.47;4972317;28;20454;-76
2023/01/24 04:50:33;;;;;;;15.40;11.40;;;;;;;1.47;100.00;151744.59;4972730;28;20576;-76
2023/01/24 04:53:00;;;;;;;18.43;11.57;;;;;;;1.46;100.00;151743.31;4991408;28;20512;-76
2023/01/24 04:55:27;;;;;;;17.90;12.97;;;;;;;1.43;100.00;151735.59;4989818;28;20448;-76
2023/01/24 04:57:54;;;;;;;17.60;12.30;;;;;;;1.47;100.00;151744.59;4980569;28;20452;-76
2023/01/24 05:00:22;;;;;;;18.27;11.93;;;;;;;1.46;100.00;151742.00;4972348;28;20446;-76
2023/01/24 05:02:51;;;;;;;19.00;12.70;;;;;;;1.51;100.00;151754.91;5000093;28;20516;-76
2023/01/24 05:05:20;;;;;;;16.00;12.07;;;;;;;1.47;100.00;151745.91;4982513;28;20474;-76
2023/01/24 05:07:47;;;;;;;15.43;10.77;;;;;;;1.47;100.00;151745.91;4971652;28;20487;-77
2023/01/24 05:10:17;;;;;;;18.47;12.70;;;;;;;1.49;100.00;151749.72;4987978;28;20456;-76
2023/01/24 05:12:46;;;;;;;16.23;12.17;;;;;;;1.50;100.00;151752.31;4989004;28;20455;-76
2023/01/24 05:15:19;;;;;;;18.13;12.60;;;;;;;1.45;100.00;151740.78;4990175;28;20545;-76
2023/01/24 05:17:46;;;;;;;18.83;12.37;;;;;;;1.43;100.00;151734.34;4973056;28;20549;-76
2023/01/24 05:20:17;;;;;;;17.80;11.77;;;;;;;1.45;100.00;151740.78;4988622;28;20477;-76
2023/01/24 05:22:46;;;;;;;16.80;12.60;;;;;;;1.44;100.00;151736.88;4978219;28;20445;-76
2023/01/24 05:25:20;;;;;;;20.57;12.77;;;;;;;1.47;100.00;151744.59;4986291;28;20443;-76
2023/01/24 05:27:47;;;;;;;19.60;12.77;;;;;;;1.44;100.00;151736.88;4988614;28;20834;-76
2023/01/24 05:30:15;;;;;;;19.97;13.30;;;;;;;1.46;100.00;151742.00;4972260;28;20501;-76
2023/01/24 05:32:43;;;;;;;15.53;11.33;;;;;;;1.43;100.00;151735.59;4985422;28;20524;-76
2023/01/24 05:35:10;;;;;;;19.57;13.20;;;;;;;1.47;100.00;151744.59;4973689;28;20551;-76
2023/01/24 05:37:37;;;;;;;18.37;12.70;;;;;;;1.46;100.00;151742.00;4989942;28;20506;-76
2023/01/24 05:40:07;;;;;;;16.63;12.20;;;;;;;1.45;100.00;151739.47;4972915;28;20464;-76
2023/01/24 05:42:34;;;;;;;22.93;13.50;;;;;;;1.42;100.00;151733.06;4969566;28;20469;-76
2023/01/24 05:45:01;;;;;;;19.97;13.40;;;;;;;1.41;100.00;151729.16;4988826;28;20528;-76
2023/01/24 05:47:28;;;;;;;19.23;12.30;;;;;;;1.45;100.00;151740.78;4970702;28;20837;-76
2023/01/24 05:49:55;;;;;;;18.50;12.90;;;;;;;1.44;100.00;151738.19;4986677;28;20482;-76
2023/01/24 05:52:22;;;;;;;19.20;14.00;;;;;;;1.39;100.00;151725.34;4988018;28;20535;-76
2023/01/24 05:54:52;;;;;;;20.00;13.50;;;;;;;1.43;100.00;151734.34;5010242;28;20485;-76
2023/01/24 05:57:31;;;;;;;21.10;14.33;;;;;;;1.39;100.00;151724.03;4976365;28;20505;-76
2023/01/24 06:00:17;;;;;;;20.90;13.53;;;;;;;1.40;100.00;151727.94;4981519;28;20923;-76
2023/01/24 06:03:04;;;;;;;23.13;14.30;;;;;;;1.39;100.00;151724.03;4986740;28;20611;-76
2023/01/24 06:05:31;;;;;;;18.17;13.30;;;;;;;1.44;100.00;151736.88;4994429;28;20449;-76
2023/01/24 06:07:58;;;;;;;17.97;12.67;;;;;;;1.44;100.00;151736.88;4987357;28;20830;-76
2023/01/24 06:10:24;;;;;;;19.70;14.10;;;;;;;1.38;100.00;151721.50;4980779;28;20934;-76
2023/01/24 06:13:05;;;;;;;17.03;13.80;;;;;;;1.40;100.00;151726.63;4969141;28;20498;-76
2023/01/24 06:15:32;;;;;;;20.40;14.77;;;;;;;1.45;100.00;151739.47;4999102;28;20450;-76
2023/01/24 06:18:00;;;;;;;20.73;14.17;;;;;;;1.42;100.00;151733.06;4966672;28;20488;-76
2023/01/24 06:20:27;;;;;;;21.90;14.17;;;;;;;1.41;100.00;151729.16;4968040;28;20446;-76
2023/01/24 06:22:55;;;;;;;21.97;14.73;;;;;;;1.42;100.00;151731.75;4972726;28;20546;-76
2023/01/24 06:25:25;;;;;;;20.10;13.77;;;;;;;1.42;100.00;151733.06;5002894;28;20444;-76
2023/01/24 06:27:52;;;;;;;17.60;13.30;;;;;;;1.40;100.00;151726.63;4985847;28;20461;-76
2023/01/24 06:30:21;;;;;;;24.77;14.03;;;;;;;1.41;100.00;151729.16;4985142;28;20537;-76
2023/01/24 06:33:08;;;;;;;20.20;12.83;;;;;;;1.41;100.00;151729.16;4985719;28;20576;-76
2023/01/24 06:35:39;;;;;;;21.33;13.60;;;;;;;1.43;100.00;151735.59;4984731;28;20471;-77
2023/01/24 06:38:16;;;;;;;21.70;14.97;;;;;;;1.40;100.00;151727.94;4981578;28;20885;-76
2023/01/24 06:40:43;;;;;;;19.53;13.47;;;;;;;1.44;100.00;151736.88;4979479;28;20461;-75
2023/01/24 06:43:10;;;;;;;23.53;15.27;;;;;;;1.42;100.00;151731.75;4985691;28;20509;-75
2023/01/24 06:45:38;;;;;;;17.17;12.23;;;;;;;1.41;100.00;151729.16;4979097;28;20486;-76
2023/01/24 06:48:05;;;;;;;18.17;11.87;;;;;;;1.46;100.00;151743.31;4980042;28;20472;-75
2023/01/24 06:50:32;;;;;;;19.77;14.07;;;;;;;1.39;100.00;151724.03;4981321;28;20454;-75
2023/01/24 06:52:59;;;;;;;27.43;14.90;;;;;;;1.42;100.00;151733.06;4984030;28;20561;-77
2023/01/24 06:55:25;;;;;;;21.87;13.30;;;;;;;1.40;100.00;151727.94;4985624;28;20938;-77
2023/01/24 06:57:55;;;;;;;17.03;12.60;;;;;;;1.43;100.00;151734.34;4980671;28;20953;-77
2023/01/24 07:00:22;;;;;;;17.67;12.37;;;;;;;1.37;100.00;151718.91;4982026;28;20453;-77
2023/01/24 07:02:57;;;;;;;19.10;13.73;;;;;;;1.37;100.00;151718.91;4979033;28;20466;-77
2023/01/24 07:05:24;;;;;;;21.80;14.53;;;;;;;1.40;100.00;151726.63;4982702;28;20451;-78
2023/01/24 07:07:51;;;;;;;18.70;14.00;;;;;;;1.37;100.00;151718.91;4977703;28;20465;-77
2023/01/24 07:10:18;;;;;;;19.10;12.97;;;;;;;1.38;100.00;151721.50;4979473;28;20542;-77
2023/01/24 07:12:44;;;;;;;22.10;14.40;;;;;;;1.46;100.00;151742.00;4982507;28;20570;-77
2023/01/24 07:15:11;;;;;;;18.53;12.53;;;;;;;1.39;100.00;151724.03;4987932;28;20456;-77
2023/01/24 07:17:38;;;;;;;16.33;11.97;;;;;;;1.36;100.00;151716.31;4986578;28;20942;-75
2023/01/24 07:20:09;;;;;;;21.73;14.23;;;;;;;1.37;100.00;151718.91;4982039;28;20451;-76
2023/01/24 07:22:37;;;;;;;22.67;13.73;;;;;;;1.40;100.00;151727.94;4982807;28;20440;-77
2023/01/24 07:25:05;;;;;;;21.60;14.20;;;;;;;1.39;100.00;151724.03;4984157;28;20463;-77
2023/01/24 07:27:32;;;;;;;20.30;13.70;;;;;;;1.44;100.00;151738.19;4987237;28;20463;-77
2023/01/24 07:29:59;;;;;;;21.40;13.50;;;;;;;1.44;100.00;151738.19;4978302;28;20455;-77
2023/01/24 07:32:25;;;;;;;18.00;13.33;;;;;;;1.42;100.00;151733.06;4985110;28;20490;-76
2023/01/24 07:34:52;;;;;;;17.53;12.70;;;;;;;1.46;100.00;151742.00;4984348;28;20507;-77
2023/01/24 07:37:22;;;;;;;20.43;13.30;;;;;;;1.46;100.00;151742.00;4987586;28;20566;-76
2023/01/24 07:39:49;;;;;;;16.80;13.53;;;;;;;1.45;100.00;151739.47;4984997;28;20455;-77
2023/01/24 07:42:16;;;;;;;22.03;13.73;;;;;;;1.44;100.00;151736.88;4985062;28;20666;-77
2023/01/24 07:44:42;;;;;;;19.30;13.37;;;;;;;1.44;100.00;151736.88;4988522;28;20489;-77
2023/01/24 07:47:09;;;;;;;22.60;14.33;;;;;;;1.45;100.00;151740.78;4988903;28;20454;-77
2023/01/24 07:49:36;;;;;;;20.27;13.30;;;;;;;1.47;100.00;151745.91;4982636;28;20476;-76
2023/01/24 07:52:03;;;;;;;19.00;13.80;;;;;;;1.46;100.00;151742.00;4980901;28;20485;-77
2023/01/24 07:54:31;;;;;;;20.63;13.67;;;;;;;1.47;100.00;151745.91;4989860;28;20550;-77
2023/01/24 07:56:57;;;;;;;21.10;13.83;;;;;;;1.48;100.00;151747.19;4987182;28;20442;-77
2023/01/24 07:59:24;;;;;;;18.83;13.60;;;;;;;1.52;100.00;151757.44;4985618;28;20789;-77
2023/01/24 08:01:51;;;;;;;22.87;14.43;;;;;;;1.49;100.00;151749.72;4985457;28;20451;-77
2023/01/24 08:04:17;;;;;;;20.13;14.37;;;;;;;1.49;100.00;151749.72;4982753;28;21898;-76
2023/01/24 08:09:26;;;;;;;20.20;12.77;;;;;;;1.49;100.00;151749.72;4986936;28;20808;-76
2023/01/24 08:11:54;;;;;;;18.87;13.80;;;;;;;1.48;100.00;151747.19;4988684;28;20478;-76
2023/01/24 08:14:21;;;;;;;18.53;13.37;;;;;;;1.46;100.00;151742.00;4966677;28;20446;-76
2023/01/24 08:16:48;;;;;;;17.10;11.83;;;;;;;1.45;100.00;151739.47;4987990;28;20483;-76
2023/01/24 08:19:15;;;;;;;20.30;14.13;;;;;;;1.50;100.00;151752.31;4969944;28;20945;-77
2023/01/24 08:21:42;;;;;;;16.93;12.30;;;;;;;1.47;100.00;151744.59;4987413;28;20443;-77
2023/01/24 08:24:09;;;;;;;18.60;12.27;;;;;;;1.51;100.00;151754.91;4987651;28;20442;-76
2023/01/24 08:26:35;;;;;;;21.40;12.83;;;;;;;1.48;100.00;151747.19;4988319;28;20558;-77
2023/01/24 08:29:03;;;;;;;19.00;11.80;;;;;;;1.51;100.00;151756.16;4988100;28;20463;-76
2023/01/24 08:31:30;;;;;;;22.20;13.80;;;;;;;1.51;100.00;151754.91;4988272;28;20453;-77
2023/01/24 08:34:00;;;;;;;15.73;10.90;;;;;;;1.53;100.00;151760.03;4986836;28;20903;-87
2023/01/24 08:36:27;;;;;;;18.60;12.10;;;;;;;1.55;100.00;151765.16;4966381;28;20474;-77
2023/01/24 08:38:54;;;;;;;18.47;12.60;;;;;;;1.56;100.00;151767.75;4986104;28;20888;-76
2023/01/24 08:41:20;;;;;;;17.63;11.10;;;;;;;1.57;100.00;151770.28;4982159;28;20451;-77
2023/01/24 08:43:47;;;;;;;17.10;12.03;;;;;;;1.57;100.00;151771.59;4985518;28;20606;-77
2023/01/24 08:46:15;;;;;;;17.40;12.60;;;;;;;1.56;100.00;151767.75;4986751;28;20815;-76
2023/01/24 08:48:42;;;;;;;18.90;12.67;;;;;;;1.64;100.00;151788.31;4986076;28;20481;-77
2023/01/24 08:51:08;;;;;;;17.80;12.33;;;;;;;1.61;100.00;151780.59;4969880;28;20451;-77
2023/01/24 08:53:35;;;;;;;20.97;14.97;;;;;;;1.59;100.00;151775.47;4986829;28;21024;-77
2023/01/24 08:56:02;;;;;;;20.20;12.60;;;;;;;1.62;100.00;151784.44;4982759;28;20451;-77
2023/01/24 08:58:29;;;;;;;18.57;13.00;;;;;;;1.67;100.00;151795.97;4981617;28;20447;-77
2023/01/24 09:00:56;;;;;;;17.50;11.87;;;;;;;1.68;100.00;151798.56;4988142;28;20754;-77
2023/01/24 09:03:23;;;;;;;15.03;11.40;;;;;;;1.65;100.00;151790.84;4987163;28;20460;-76
2023/01/24 09:05:56;;;;;;;18.57;13.00;;;;;;;1.73;100.00;151811.41;4986690;28;20450;-77
2023/01/24 09:08:23;;;;;;;18.47;12.47;;;;;;;1.69;100.00;151802.47;4986527;28;20461;-77
2023/01/24 09:10:50;;;;;;;19.53;12.07;;;;;;;1.74;100.00;151814.00;5001226;28;20491;-77
2023/01/24 09:13:16;;;;;;;14.70;10.90;;;;;;;1.69;100.00;151801.16;4964604;28;20581;-77
2023/01/24 09:15:43;;;;;;;19.30;12.43;;;;;;;1.72;100.00;151810.13;4987643;28;20545;-77
2023/01/24 09:18:10;;;;;;;18.30;12.30;;;;;;;1.70;100.00;151803.69;4988118;28;20470;-76
2023/01/24 09:20:38;;;;;;;14.30;11.70;;;;;;;1.73;100.00;151811.41;4985969;28;20501;-77
2023/01/24 09:23:09;;;;;;;14.97;11.83;;;;;;;1.74;100.00;151814.00;4985525;28;20821;-77
2023/01/24 09:25:35;;;;;;;20.47;12.00;;;;;;;1.77;100.00;151821.72;4979862;28;20486;-76
2023/01/24 09:28:02;;;;;;;16.97;11.77;;;;;;;1.80;100.00;151829.44;4980247;28;20545;-77
2023/01/24 09:30:28;;;;;;;16.13;10.77;;;;;;;1.80;100.00;151830.69;4984984;28;20614;-76
2023/01/24 09:32:55;;;;;;;17.43;11.93;;;;;;;1.83;100.00;151837.13;4987434;28;20478;-77
2023/01/24 09:35:22;;;;;;;17.53;12.07;;;;;;;1.84;100.00;151841.00;4980394;28;20760;-77
2023/01/24 09:37:52;;;;;;;17.30;12.23;;;;;;;1.82;100.00;151835.88;4984739;28;20503;-77
2023/01/24 09:40:23;;;;;;;16.40;11.87;;;;;;;1.85;100.00;151842.28;4980665;28;20451;-77
2023/01/24 09:42:57;;;;;;;15.37;10.80;;;;;;;1.83;100.00;151838.41;4984959;28;20530;-76
2023/01/24 09:45:29;;;;;;;18.30;11.80;;;;;;;1.88;100.00;151848.72;4986374;28;20784;-76
2023/01/24 09:47:59;;;;;;;16.67;12.30;;;;;;;1.89;100.00;151851.25;4985877;28;22111;-76
2023/01/24 09:50:29;;;;;;;20.63;13.07;;;;;;;1.87;100.00;151847.41;4981064;28;20443;-77
2023/01/24 09:52:58;;;;;;;18.10;12.10;;;;;;;1.84;100.00;151841.00;4985046;28;21092;-76
2023/01/24 09:55:28;;;;;;;15.67;10.23;;;;;;;1.94;100.00;151864.09;4986613;28;20594;-76
2023/01/24 09:57:57;;;;;;;16.33;11.30;;;;;;;1.95;100.00;151866.69;4986565;28;20549;-77
2023/01/24 10:00:26;;;;;;;15.13;10.90;;;;;;;1.94;100.00;151865.41;4980955;28;20548;-76
2023/01/24 10:02:54;;;;;;;14.33;11.03;;;;;;;1.89;100.00;151852.56;4986439;28;20466;-77
2023/01/24 10:05:23;;;;;;;16.70;11.37;;;;;;;1.94;100.00;151864.09;4981154;28;20451;-76
2023/01/24 10:08:00;;;;;;;17.10;10.83;;;;;;;1.95;100.00;151868.00;4986842;28;20540;-76
2023/01/24 10:10:49;;;;;;;15.80;10.47;;;;;;;1.93;100.00;151861.56;4987597;28;20888;-77
2023/01/24 10:13:41;;;;;;;17.07;10.87;;;;;;;2.01;100.00;151882.13;4985857;28;20578;-76
2023/01/24 10:16:17;;;;;;;16.53;10.87;;;;;;;1.95;100.00;151866.69;4982526;28;20675;-76
2023/01/24 10:18:53;;;;;;;17.10;11.57;;;;;;;1.95;100.00;151868.00;4979302;28;20515;-76
2023/01/24 10:21:37;;;;;;;18.90;12.37;;;;;;;1.98;100.00;151874.41;4979494;28;20941;-76
2023/01/24 10:24:08;;;;;;;18.73;11.87;;;;;;;1.99;100.00;151878.25;4987124;28;20453;-77
2023/01/24 10:26:38;;;;;;;16.60;11.30;;;;;;;2.01;100.00;151883.44;4985838;28;20484;-76
2023/01/24 10:29:12;;;;;;;15.20;10.33;;;;;;;1.97;100.00;151871.81;4987876;28;20865;-77
2023/01/24 10:31:42;;;;;;;17.73;11.53;;;;;;;1.96;100.00;151870.53;4980479;28;20455;-76
2023/01/24 10:34:11;;;;;;;17.30;11.27;;;;;;;2.05;100.00;151893.69;4979610;28;20483;-76
2023/01/24 10:36:43;;;;;;;17.47;11.67;;;;;;;2.04;100.00;151891.09;4985112;28;20510;-77
2023/01/24 10:39:13;;;;;;;16.73;11.23;;;;;;;2.04;100.00;151889.84;4979577;28;20434;-76
2023/01/24 10:41:40;;;;;;;15.90;11.20;;;;;;;2.03;100.00;151887.25;4978641;28;20552;-77
2023/01/24 10:44:13;;;;;;;14.63;11.33;;;;;;;2.05;100.00;151892.41;4985263;28;20569;-76
2023/01/24 10:46:50;;;;;;;18.00;11.70;;;;;;;2.03;100.00;151887.25;4986618;28;20452;-76
2023/01/24 10:49:24;;;;;;;16.20;11.13;;;;;;;2.09;100.00;151902.72;4981252;28;20550;-77
2023/01/24 10:52:15;;;;;;;15.57;11.33;;;;;;;2.06;100.00;151895.00;4984824;28;20453;-76
2023/01/24 10:54:50;;;;;;;16.93;10.10;;;;;;;2.01;100.00;151882.13;4983677;28;20543;-76
2023/01/24 10:57:37;;;;;;;20.40;11.60;;;;;;;2.09;100.00;151903.94;4970656;28;20541;-77
2023/01/24 11:00:27;;;;;;;14.10;10.80;;;;;;;2.11;100.00;151909.13;4986070;28;21739;-77
2023/01/24 11:02:55;;;;;;;15.10;10.27;;;;;;;2.15;100.00;151919.41;4983328;28;20463;-76
2023/01/24 11:05:23;;;;;;;13.07;10.30;;;;;;;2.12;100.00;151911.69;4985357;28;20481;-77
2023/01/24 11:07:51;;;;;;;13.97;10.37;;;;;;;2.17;100.00;151924.53;4987582;28;20468;-77
2023/01/24 11:10:23;;;;;;;14.63;10.43;;;;;;;2.22;100.00;151937.44;5004780;28;20461;-77
2023/01/24 11:12:52;;;;;;;16.60;10.57;;;;;;;2.17;100.00;151923.28;4989576;28;20476;-76
2023/01/24 11:15:23;;;;;;;14.83;10.33;;;;;;;2.19;100.00;151928.41;4965584;28;20450;-76
2023/01/24 11:17:54;;;;;;;15.17;10.87;;;;;;;2.21;100.00;151934.84;4984507;28;20457;-76
2023/01/24 11:20:27;;;;;;;13.73;10.33;;;;;;;2.28;100.00;151951.53;4982678;28;20464;-77
2023/01/24 11:23:02;;;;;;;15.60;10.83;;;;;;;2.25;100.00;151943.84;4983557;28;20465;-77
2023/01/24 11:25:30;;;;;;;14.70;10.17;;;;;;;2.23;100.00;151938.66;4982815;28;20712;-76
2023/01/24 11:27:59;;;;;;;13.80;9.50;;;;;;;2.28;100.00;151951.53;5000962;28;20854;-76
2023/01/24 11:30:25;;;;;;;12.40;9.30;;;;;;;2.28;100.00;151952.81;4988204;28;20884;-77
2023/01/24 11:33:02;;;;;;;12.90;9.13;;;;;;;2.28;100.00;151952.81;4988339;28;20585;-76
2023/01/24 11:35:35;;;;;;;13.10;9.10;;;;;;;2.33;100.00;151964.44;4982380;28;20444;-77
2023/01/24 11:38:19;;;;;;;12.57;9.97;;;;;;;2.26;100.00;151947.69;4967635;28;20468;-77
2023/01/24 11:40:50;;;;;;;13.63;9.63;;;;;;;2.28;100.00;151951.53;4987944;28;20859;-78
2023/01/24 11:43:51;;;;;;;14.07;10.33;;;;;;;2.31;100.00;151959.25;4966746;28;20535;-77
2023/01/24 11:46:25;;;;;;;13.20;8.87;;;;;;;2.37;100.00;151976.00;4975931;28;20459;-77
2023/01/24 11:48:54;;;;;;;14.20;10.43;;;;;;;2.34;100.00;151968.25;4988229;28;20447;-76
2023/01/24 11:51:31;;;;;;;15.23;10.80;;;;;;;2.37;100.00;151974.69;4987430;28;20451;-77
2023/01/24 11:54:09;;;;;;;11.27;8.63;;;;;;;2.42;100.00;151987.53;4981837;28;20906;-76
2023/01/24 11:56:43;;;;;;;13.27;8.93;;;;;;;2.37;100.00;151976.00;4982065;28;20460;-77
2023/01/24 11:59:39;;;;;;;13.03;9.73;;;;;;;2.40;100.00;151983.72;4985726;28;20451;-77
2023/01/24 12:02:32;;;;;;;11.83;8.50;;;;;;;2.43;100.00;151991.44;4982107;28;20539;-77
2023/01/24 12:05:24;;;;;;;13.30;9.67;;;;;;;2.43;100.00;151991.44;4982640;28;20460;-76